sensor_id;sensor_type;location;lat;lon;timestamp;P1;durP1;ratioP1;P2;durP2;ratioP2
51148;SDS011;37210;50.058;8.688;2022-10-15T00:01:09;3.78;;;2.00;;
51148;SDS011;37210;50.058;8.688;2022-10-15T00:03:40;2.30;;;2.10;;
51148;SDS011;37210;50.058;8.688;2022-10-15T00:06:12;1.85;;;1.75;;
51148;SDS011;37210;50.058;8.688;2022-10-15T00:08:43;3.47;;;2.20;;
51148;SDS011;37210;50.058;8.688;2022-10-15T00:11:12;2.90;;;1.98;;
51148;SDS011;37210;50.058;8.688;2022-10-15T00:13:42;2.45;;;2.10;;
51148;SDS011;37210;50.058;8.688;2022-10-15T00:16:11;2.05;;;1.92;;
51148;SDS011;37210;50.058;8.688;2022-10-15T00:18:41;2.05;;;1.90;;
51148;SDS011;37210;50.058;8.688;2022-10-15T00:21:09;2.40;;;2.20;;
51148;SDS011;37210;50.058;8.688;2022-10-15T00:23:41;1.75;;;1.65;;
51148;SDS011;37210;50.058;8.688;2022-10-15T00:26:10;2.35;;;2.00;;
51148;SDS011;37210;50.058;8.688;2022-10-15T00:28:40;1.80;;;1.70;;
51148;SDS011;37210;50.058;8.688;2022-10-15T00:31:10;1.98;;;1.73;;
51148;SDS011;37210;50.058;8.688;2022-10-15T00:33:41;2.33;;;1.95;;
51148;SDS011;37210;50.058;8.688;2022-10-15T00:36:13;2.05;;;1.95;;
51148;SDS011;37210;50.058;8.688;2022-10-15T00:38:44;1.67;;;1.58;;
51148;SDS011;37210;50.058;8.688;2022-10-15T00:41:13;4.10;;;2.20;;
51148;SDS011;37210;50.058;8.688;2022-10-15T00:43:46;2.65;;;2.40;;
51148;SDS011;37210;50.058;8.688;2022-10-15T00:46:17;2.22;;;2.03;;
51148;SDS011;37210;50.058;8.688;2022-10-15T00:48:53;2.67;;;1.98;;
51148;SDS011;37210;50.058;8.688;2022-10-15T00:51:32;1.85;;;1.75;;
51148;SDS011;37210;50.058;8.688;2022-10-15T00:54:07;2.60;;;2.40;;
51148;SDS011;37210;50.058;8.688;2022-10-15T00:56:36;2.10;;;2.00;;
51148;SDS011;37210;50.058;8.688;2022-10-15T00:59:09;2.50;;;2.30;;
51148;SDS011;37210;50.058;8.688;2022-10-15T01:01:40;2.33;;;2.17;;
51148;SDS011;37210;50.058;8.688;2022-10-15T01:04:08;3.10;;;2.20;;
51148;SDS011;37210;50.058;8.688;2022-10-15T01:06:39;2.40;;;2.20;;
51148;SDS011;37210;50.058;8.688;2022-10-15T01:09:08;2.45;;;2.25;;
51148;SDS011;37210;50.058;8.688;2022-10-15T01:11:37;2.75;;;2.55;;
51148;SDS011;37210;50.058;8.688;2022-10-15T01:14:25;3.28;;;3.05;;
51148;SDS011;37210;50.058;8.688;2022-10-15T01:17:06;3.30;;;3.00;;
51148;SDS011;37210;50.058;8.688;2022-10-15T01:19:52;2.65;;;2.40;;
51148;SDS011;37210;50.058;8.688;2022-10-15T01:23:13;3.00;;;2.80;;
51148;SDS011;37210;50.058;8.688;2022-10-15T01:26:15;2.92;;;2.72;;
51148;SDS011;37210;50.058;8.688;2022-10-15T01:29:39;3.60;;;3.30;;
51148;SDS011;37210;50.058;8.688;2022-10-15T01:32:32;3.15;;;2.92;;
51148;SDS011;37210;50.058;8.688;2022-10-15T01:35:06;4.90;;;3.17;;
51148;SDS011;37210;50.058;8.688;2022-10-15T01:37:49;3.50;;;3.20;;
51148;SDS011;37210;50.058;8.688;2022-10-15T01:40:25;3.67;;;3.38;;
51148;SDS011;37210;50.058;8.688;2022-10-15T01:43:00;3.72;;;3.33;;
51148;SDS011;37210;50.058;8.688;2022-10-15T01:45:43;3.58;;;3.20;;
51148;SDS011;37210;50.058;8.688;2022-10-15T01:48:42;3.88;;;3.58;;
51148;SDS011;37210;50.058;8.688;2022-10-15T01:51:11;3.55;;;3.25;;
51148;SDS011;37210;50.058;8.688;2022-10-15T01:53:43;3.88;;;3.58;;
51148;SDS011;37210;50.058;8.688;2022-10-15T01:56:13;3.53;;;3.30;;
51148;SDS011;37210;50.058;8.688;2022-10-15T01:58:48;4.13;;;3.83;;
51148;SDS011;37210;50.058;8.688;2022-10-15T02:01:20;3.72;;;3.42;;
51148;SDS011;37210;50.058;8.688;2022-10-15T02:03:49;3.40;;;3.17;;
51148;SDS011;37210;50.058;8.688;2022-10-15T02:06:20;4.03;;;3.70;;
51148;SDS011;37210;50.058;8.688;2022-10-15T02:09:04;4.28;;;3.88;;
51148;SDS011;37210;50.058;8.688;2022-10-15T02:11:46;5.95;;;3.95;;
51148;SDS011;37210;50.058;8.688;2022-10-15T02:14:31;4.20;;;3.80;;
51148;SDS011;37210;50.058;8.688;2022-10-15T02:17:07;3.83;;;3.53;;
51148;SDS011;37210;50.058;8.688;2022-10-15T02:19:40;3.80;;;3.50;;
51148;SDS011;37210;50.058;8.688;2022-10-15T02:22:15;4.32;;;3.92;;
51148;SDS011;37210;50.058;8.688;2022-10-15T02:24:48;3.80;;;3.50;;
51148;SDS011;37210;50.058;8.688;2022-10-15T02:27:22;3.40;;;3.20;;
51148;SDS011;37210;50.058;8.688;2022-10-15T02:29:53;4.07;;;3.67;;
51148;SDS011;37210;50.058;8.688;2022-10-15T02:32:23;3.78;;;3.47;;
51148;SDS011;37210;50.058;8.688;2022-10-15T02:34:55;3.65;;;3.35;;
51148;SDS011;37210;50.058;8.688;2022-10-15T02:37:25;3.72;;;3.47;;
51148;SDS011;37210;50.058;8.688;2022-10-15T02:39:56;3.90;;;3.50;;
51148;SDS011;37210;50.058;8.688;2022-10-15T02:42:24;3.55;;;3.25;;
51148;SDS011;37210;50.058;8.688;2022-10-15T02:44:52;3.85;;;3.55;;
51148;SDS011;37210;50.058;8.688;2022-10-15T02:47:20;3.55;;;3.25;;
51148;SDS011;37210;50.058;8.688;2022-10-15T02:49:48;3.65;;;3.35;;
51148;SDS011;37210;50.058;8.688;2022-10-15T02:52:17;3.97;;;3.65;;
51148;SDS011;37210;50.058;8.688;2022-10-15T02:54:45;3.75;;;3.45;;
51148;SDS011;37210;50.058;8.688;2022-10-15T02:57:12;3.63;;;3.33;;
51148;SDS011;37210;50.058;8.688;2022-10-15T02:59:42;3.60;;;3.30;;
51148;SDS011;37210;50.058;8.688;2022-10-15T03:02:09;3.90;;;3.60;;
51148;SDS011;37210;50.058;8.688;2022-10-15T03:04:37;3.35;;;3.08;;
51148;SDS011;37210;50.058;8.688;2022-10-15T03:07:05;4.07;;;3.78;;
51148;SDS011;37210;50.058;8.688;2022-10-15T03:09:34;4.10;;;3.65;;
51148;SDS011;37210;50.058;8.688;2022-10-15T03:12:03;3.38;;;3.08;;
51148;SDS011;37210;50.058;8.688;2022-10-15T03:14:32;3.72;;;3.35;;
51148;SDS011;37210;50.058;8.688;2022-10-15T03:17:00;4.05;;;3.75;;
51148;SDS011;37210;50.058;8.688;2022-10-15T03:19:28;3.97;;;3.67;;
51148;SDS011;37210;50.058;8.688;2022-10-15T03:21:56;3.63;;;3.33;;
51148;SDS011;37210;50.058;8.688;2022-10-15T03:24:25;4.28;;;3.65;;
51148;SDS011;37210;50.058;8.688;2022-10-15T03:26:54;4.68;;;4.25;;
51148;SDS011;37210;50.058;8.688;2022-10-15T03:29:22;5.32;;;4.45;;
51148;SDS011;37210;50.058;8.688;2022-10-15T03:31:56;5.05;;;4.53;;
51148;SDS011;37210;50.058;8.688;2022-10-15T03:34:27;4.45;;;4.03;;
51148;SDS011;37210;50.058;8.688;2022-10-15T03:36:54;4.80;;;4.40;;
51148;SDS011;37210;50.058;8.688;2022-10-15T03:39:22;5.15;;;4.65;;
51148;SDS011;37210;50.058;8.688;2022-10-15T03:41:55;5.65;;;5.00;;
51148;SDS011;37210;50.058;8.688;2022-10-15T03:44:30;4.68;;;4.18;;
51148;SDS011;37210;50.058;8.688;2022-10-15T03:47:06;5.90;;;4.50;;
51148;SDS011;37210;50.058;8.688;2022-10-15T03:49:44;5.68;;;5.05;;
51148;SDS011;37210;50.058;8.688;2022-10-15T03:52:11;6.20;;;4.97;;
51148;SDS011;37210;50.058;8.688;2022-10-15T03:54:40;4.95;;;4.55;;
51148;SDS011;37210;50.058;8.688;2022-10-15T03:57:10;5.45;;;4.25;;
51148;SDS011;37210;50.058;8.688;2022-10-15T03:59:43;5.45;;;4.95;;
51148;SDS011;37210;50.058;8.688;2022-10-15T04:02:11;6.28;;;5.10;;
51148;SDS011;37210;50.058;8.688;2022-10-15T04:04:39;5.50;;;5.00;;
51148;SDS011;37210;50.058;8.688;2022-10-15T04:07:07;5.40;;;4.90;;
51148;SDS011;37210;50.058;8.688;2022-10-15T04:09:36;5.18;;;4.68;;
51148;SDS011;37210;50.058;8.688;2022-10-15T04:12:21;5.30;;;4.65;;
51148;SDS011;37210;50.058;8.688;2022-10-15T04:14:49;5.07;;;4.57;;
51148;SDS011;37210;50.058;8.688;2022-10-15T04:17:17;5.57;;;4.45;;
51148;SDS011;37210;50.058;8.688;2022-10-15T04:19:44;6.20;;;5.03;;
51148;SDS011;37210;50.058;8.688;2022-10-15T04:22:14;8.35;;;5.45;;
51148;SDS011;37210;50.058;8.688;2022-10-15T04:24:46;4.63;;;4.10;;
51148;SDS011;37210;50.058;8.688;2022-10-15T04:27:26;4.68;;;4.18;;
51148;SDS011;37210;50.058;8.688;2022-10-15T04:30:02;5.18;;;4.63;;
51148;SDS011;37210;50.058;8.688;2022-10-15T04:32:31;5.30;;;4.53;;
51148;SDS011;37210;50.058;8.688;2022-10-15T04:34:59;4.80;;;4.20;;
51148;SDS011;37210;50.058;8.688;2022-10-15T04:37:46;4.72;;;4.03;;
51148;SDS011;37210;50.058;8.688;2022-10-15T04:40:14;4.85;;;4.20;;
51148;SDS011;37210;50.058;8.688;2022-10-15T04:42:44;4.65;;;4.20;;
51148;SDS011;37210;50.058;8.688;2022-10-15T04:45:12;5.88;;;4.72;;
51148;SDS011;37210;50.058;8.688;2022-10-15T04:47:42;4.95;;;4.45;;
51148;SDS011;37210;50.058;8.688;2022-10-15T04:50:13;4.85;;;4.35;;
51148;SDS011;37210;50.058;8.688;2022-10-15T04:52:59;5.43;;;4.18;;
51148;SDS011;37210;50.058;8.688;2022-10-15T04:55:31;5.20;;;4.70;;
51148;SDS011;37210;50.058;8.688;2022-10-15T04:58:01;5.00;;;4.50;;
51148;SDS011;37210;50.058;8.688;2022-10-15T05:00:29;4.95;;;4.43;;
51148;SDS011;37210;50.058;8.688;2022-10-15T05:03:03;4.75;;;4.15;;
51148;SDS011;37210;50.058;8.688;2022-10-15T05:05:46;5.40;;;3.92;;
51148;SDS011;37210;50.058;8.688;2022-10-15T05:08:13;4.03;;;3.63;;
51148;SDS011;37210;50.058;8.688;2022-10-15T05:11:00;3.70;;;3.17;;
51148;SDS011;37210;50.058;8.688;2022-10-15T05:13:30;4.53;;;3.55;;
51148;SDS011;37210;50.058;8.688;2022-10-15T05:16:07;4.63;;;3.67;;
51148;SDS011;37210;50.058;8.688;2022-10-15T05:18:36;5.25;;;4.10;;
51148;SDS011;37210;50.058;8.688;2022-10-15T05:21:05;4.10;;;3.60;;
51148;SDS011;37210;50.058;8.688;2022-10-15T05:23:35;3.95;;;3.58;;
51148;SDS011;37210;50.058;8.688;2022-10-15T05:26:21;3.80;;;3.28;;
51148;SDS011;37210;50.058;8.688;2022-10-15T05:28:53;3.50;;;3.20;;
51148;SDS011;37210;50.058;8.688;2022-10-15T05:31:27;4.13;;;3.72;;
51148;SDS011;37210;50.058;8.688;2022-10-15T05:34:07;3.78;;;3.45;;
51148;SDS011;37210;50.058;8.688;2022-10-15T05:36:50;3.75;;;3.03;;
51148;SDS011;37210;50.058;8.688;2022-10-15T05:39:17;3.83;;;3.45;;
51148;SDS011;37210;50.058;8.688;2022-10-15T05:41:45;3.60;;;3.22;;
51148;SDS011;37210;50.058;8.688;2022-10-15T05:44:16;3.38;;;2.95;;
51148;SDS011;37210;50.058;8.688;2022-10-15T05:46:44;2.97;;;2.60;;
51148;SDS011;37210;50.058;8.688;2022-10-15T05:49:17;3.70;;;2.95;;
51148;SDS011;37210;50.058;8.688;2022-10-15T05:51:52;3.40;;;3.10;;
51148;SDS011;37210;50.058;8.688;2022-10-15T05:54:35;3.42;;;3.05;;
51148;SDS011;37210;50.058;8.688;2022-10-15T05:57:03;5.80;;;3.35;;
51148;SDS011;37210;50.058;8.688;2022-10-15T05:59:32;3.60;;;2.65;;
51148;SDS011;37210;50.058;8.688;2022-10-15T06:02:00;2.72;;;2.53;;
51148;SDS011;37210;50.058;8.688;2022-10-15T06:04:27;2.65;;;2.45;;
51148;SDS011;37210;50.058;8.688;2022-10-15T06:06:58;2.78;;;2.47;;
51148;SDS011;37210;50.058;8.688;2022-10-15T06:09:26;2.63;;;2.42;;
51148;SDS011;37210;50.058;8.688;2022-10-15T06:11:54;2.42;;;2.22;;
51148;SDS011;37210;50.058;8.688;2022-10-15T06:14:23;2.75;;;2.40;;
51148;SDS011;37210;50.058;8.688;2022-10-15T06:16:53;3.40;;;2.65;;
51148;SDS011;37210;50.058;8.688;2022-10-15T06:19:21;2.85;;;2.60;;
51148;SDS011;37210;50.058;8.688;2022-10-15T06:21:49;2.35;;;2.15;;
51148;SDS011;37210;50.058;8.688;2022-10-15T06:24:17;2.50;;;2.30;;
51148;SDS011;37210;50.058;8.688;2022-10-15T06:26:45;3.83;;;2.45;;
51148;SDS011;37210;50.058;8.688;2022-10-15T06:29:13;3.30;;;2.90;;
51148;SDS011;37210;50.058;8.688;2022-10-15T06:31:41;2.78;;;2.55;;
51148;SDS011;37210;50.058;8.688;2022-10-15T06:34:11;2.95;;;2.58;;
51148;SDS011;37210;50.058;8.688;2022-10-15T06:36:39;3.92;;;2.85;;
51148;SDS011;37210;50.058;8.688;2022-10-15T06:39:06;3.55;;;2.80;;
51148;SDS011;37210;50.058;8.688;2022-10-15T06:41:34;3.10;;;2.80;;
51148;SDS011;37210;50.058;8.688;2022-10-15T06:44:02;2.95;;;2.42;;
51148;SDS011;37210;50.058;8.688;2022-10-15T06:46:32;2.85;;;2.60;;
51148;SDS011;37210;50.058;8.688;2022-10-15T06:49:00;3.05;;;2.55;;
51148;SDS011;37210;50.058;8.688;2022-10-15T06:51:30;2.70;;;2.50;;
51148;SDS011;37210;50.058;8.688;2022-10-15T06:54:02;3.33;;;2.30;;
51148;SDS011;37210;50.058;8.688;2022-10-15T06:56:32;2.80;;;2.50;;
51148;SDS011;37210;50.058;8.688;2022-10-15T06:59:00;3.53;;;2.65;;
51148;SDS011;37210;50.058;8.688;2022-10-15T07:01:28;3.08;;;2.30;;
51148;SDS011;37210;50.058;8.688;2022-10-15T07:04:00;2.30;;;2.03;;
51148;SDS011;37210;50.058;8.688;2022-10-15T07:06:28;3.08;;;2.63;;
51148;SDS011;37210;50.058;8.688;2022-10-15T07:08:56;2.83;;;2.53;;
51148;SDS011;37210;50.058;8.688;2022-10-15T07:11:27;2.15;;;2.00;;
51148;SDS011;37210;50.058;8.688;2022-10-15T07:13:54;2.47;;;2.28;;
51148;SDS011;37210;50.058;8.688;2022-10-15T07:16:25;3.08;;;2.30;;
51148;SDS011;37210;50.058;8.688;2022-10-15T07:18:52;2.97;;;2.58;;
51148;SDS011;37210;50.058;8.688;2022-10-15T07:21:20;2.80;;;2.60;;
51148;SDS011;37210;50.058;8.688;2022-10-15T07:23:49;3.03;;;2.70;;
51148;SDS011;37210;50.058;8.688;2022-10-15T07:26:18;2.90;;;2.53;;
51148;SDS011;37210;50.058;8.688;2022-10-15T07:29:13;3.03;;;2.60;;
51148;SDS011;37210;50.058;8.688;2022-10-15T07:31:40;3.38;;;2.78;;
51148;SDS011;37210;50.058;8.688;2022-10-15T07:34:08;3.53;;;2.58;;
51148;SDS011;37210;50.058;8.688;2022-10-15T07:36:36;2.97;;;2.65;;
51148;SDS011;37210;50.058;8.688;2022-10-15T07:39:07;2.63;;;2.42;;
51148;SDS011;37210;50.058;8.688;2022-10-15T07:41:38;3.80;;;2.65;;
51148;SDS011;37210;50.058;8.688;2022-10-15T07:44:06;3.03;;;2.60;;
51148;SDS011;37210;50.058;8.688;2022-10-15T07:46:34;2.72;;;2.53;;
51148;SDS011;37210;50.058;8.688;2022-10-15T07:49:02;3.80;;;3.20;;
51148;SDS011;37210;50.058;8.688;2022-10-15T07:51:30;3.40;;;2.53;;
51148;SDS011;37210;50.058;8.688;2022-10-15T07:53:57;3.55;;;2.70;;
51148;SDS011;37210;50.058;8.688;2022-10-15T07:56:26;3.35;;;2.95;;
51148;SDS011;37210;50.058;8.688;2022-10-15T07:58:56;4.28;;;2.80;;
51148;SDS011;37210;50.058;8.688;2022-10-15T08:01:26;3.53;;;2.78;;
51148;SDS011;37210;50.058;8.688;2022-10-15T08:03:53;2.50;;;2.30;;
51148;SDS011;37210;50.058;8.688;2022-10-15T08:06:21;2.83;;;2.63;;
51148;SDS011;37210;50.058;8.688;2022-10-15T08:08:51;3.90;;;2.90;;
51148;SDS011;37210;50.058;8.688;2022-10-15T08:11:19;2.97;;;2.20;;
51148;SDS011;37210;50.058;8.688;2022-10-15T08:13:48;2.50;;;2.30;;
51148;SDS011;37210;50.058;8.688;2022-10-15T08:16:18;2.58;;;2.38;;
51148;SDS011;37210;50.058;8.688;2022-10-15T08:18:56;3.58;;;2.22;;
51148;SDS011;37210;50.058;8.688;2022-10-15T08:21:25;3.28;;;2.40;;
51148;SDS011;37210;50.058;8.688;2022-10-15T08:23:52;2.08;;;1.88;;
51148;SDS011;37210;50.058;8.688;2022-10-15T08:26:29;4.38;;;2.50;;
51148;SDS011;37210;50.058;8.688;2022-10-15T08:28:58;3.65;;;2.33;;
51148;SDS011;37210;50.058;8.688;2022-10-15T08:31:27;2.75;;;2.17;;
51148;SDS011;37210;50.058;8.688;2022-10-15T08:33:58;2.40;;;2.20;;
51148;SDS011;37210;50.058;8.688;2022-10-15T08:36:26;2.95;;;2.47;;
51148;SDS011;37210;50.058;8.688;2022-10-15T08:38:54;2.50;;;2.35;;
51148;SDS011;37210;50.058;8.688;2022-10-15T08:41:28;2.55;;;2.30;;
51148;SDS011;37210;50.058;8.688;2022-10-15T08:44:04;2.95;;;2.72;;
51148;SDS011;37210;50.058;8.688;2022-10-15T08:46:38;3.95;;;2.42;;
51148;SDS011;37210;50.058;8.688;2022-10-15T08:49:12;3.25;;;2.40;;
51148;SDS011;37210;50.058;8.688;2022-10-15T08:51:59;2.30;;;2.10;;
51148;SDS011;37210;50.058;8.688;2022-10-15T08:54:46;9.70;;;8.63;;
51148;SDS011;37210;50.058;8.688;2022-10-15T08:57:19;3.45;;;2.80;;
51148;SDS011;37210;50.058;8.688;2022-10-15T09:00:12;2.72;;;2.53;;
51148;SDS011;37210;50.058;8.688;2022-10-15T09:02:47;2.40;;;2.20;;
51148;SDS011;37210;50.058;8.688;2022-10-15T09:05:29;2.10;;;1.88;;
51148;SDS011;37210;50.058;8.688;2022-10-15T09:08:11;2.70;;;2.50;;
51148;SDS011;37210;50.058;8.688;2022-10-15T09:10:49;2.50;;;2.30;;
51148;SDS011;37210;50.058;8.688;2022-10-15T09:13:23;5.57;;;4.30;;
51148;SDS011;37210;50.058;8.688;2022-10-15T09:15:59;2.38;;;2.05;;
51148;SDS011;37210;50.058;8.688;2022-10-15T09:18:31;7.72;;;5.25;;
51148;SDS011;37210;50.058;8.688;2022-10-15T09:21:02;2.50;;;1.70;;
51148;SDS011;37210;50.058;8.688;2022-10-15T09:23:31;2.97;;;2.22;;
51148;SDS011;37210;50.058;8.688;2022-10-15T09:26:01;3.97;;;3.33;;
51148;SDS011;37210;50.058;8.688;2022-10-15T09:28:43;5.53;;;4.60;;
51148;SDS011;37210;50.058;8.688;2022-10-15T09:31:24;2.28;;;1.95;;
51148;SDS011;37210;50.058;8.688;2022-10-15T09:36:37;2.90;;;2.53;;
51148;SDS011;37210;50.058;8.688;2022-10-15T09:42:22;6.95;;;5.65;;
51148;SDS011;37210;50.058;8.688;2022-10-15T09:44:58;3.17;;;2.33;;
51148;SDS011;37210;50.058;8.688;2022-10-15T09:47:31;7.35;;;6.60;;
51148;SDS011;37210;50.058;8.688;2022-10-15T09:50:01;2.63;;;2.42;;
51148;SDS011;37210;50.058;8.688;2022-10-15T09:52:38;8.32;;;6.05;;
51148;SDS011;37210;50.058;8.688;2022-10-15T09:55:32;2.03;;;1.92;;
51148;SDS011;37210;50.058;8.688;2022-10-15T09:58:08;2.85;;;2.63;;
51148;SDS011;37210;50.058;8.688;2022-10-15T10:00:50;3.22;;;2.85;;
51148;SDS011;37210;50.058;8.688;2022-10-15T10:03:23;3.50;;;1.83;;
51148;SDS011;37210;50.058;8.688;2022-10-15T10:06:03;2.10;;;1.80;;
51148;SDS011;37210;50.058;8.688;2022-10-15T10:08:48;2.70;;;1.45;;
51148;SDS011;37210;50.058;8.688;2022-10-15T10:11:18;3.22;;;1.80;;
51148;SDS011;37210;50.058;8.688;2022-10-15T10:13:52;3.22;;;2.00;;
51148;SDS011;37210;50.058;8.688;2022-10-15T10:16:22;3.03;;;1.83;;
51148;SDS011;37210;50.058;8.688;2022-10-15T10:19:10;2.45;;;2.25;;
51148;SDS011;37210;50.058;8.688;2022-10-15T10:21:42;1.60;;;1.50;;
51148;SDS011;37210;50.058;8.688;2022-10-15T10:24:17;2.67;;;2.00;;
51148;SDS011;37210;50.058;8.688;2022-10-15T10:26:51;5.05;;;4.00;;
51148;SDS011;37210;50.058;8.688;2022-10-15T10:29:19;2.65;;;1.60;;
51148;SDS011;37210;50.058;8.688;2022-10-15T10:31:48;2.70;;;1.63;;
51148;SDS011;37210;50.058;8.688;2022-10-15T10:34:31;1.45;;;1.35;;
51148;SDS011;37210;50.058;8.688;2022-10-15T10:37:03;2.22;;;1.70;;
51148;SDS011;37210;50.058;8.688;2022-10-15T10:39:32;14.65;;;2.75;;
51148;SDS011;37210;50.058;8.688;2022-10-15T10:42:02;5.15;;;2.08;;
51148;SDS011;37210;50.058;8.688;2022-10-15T10:44:33;3.33;;;1.90;;
51148;SDS011;37210;50.058;8.688;2022-10-15T10:47:07;3.70;;;1.67;;
51148;SDS011;37210;50.058;8.688;2022-10-15T10:49:42;10.20;;;3.40;;
51148;SDS011;37210;50.058;8.688;2022-10-15T10:52:23;3.60;;;1.75;;
51148;SDS011;37210;50.058;8.688;2022-10-15T10:54:57;2.90;;;1.40;;
51148;SDS011;37210;50.058;8.688;2022-10-15T10:57:31;3.20;;;1.58;;
51148;SDS011;37210;50.058;8.688;2022-10-15T11:00:11;4.10;;;1.60;;
51148;SDS011;37210;50.058;8.688;2022-10-15T11:02:47;2.45;;;1.63;;
51148;SDS011;37210;50.058;8.688;2022-10-15T11:05:21;3.88;;;1.45;;
51148;SDS011;37210;50.058;8.688;2022-10-15T11:07:56;1.58;;;1.20;;
51148;SDS011;37210;50.058;8.688;2022-10-15T11:10:36;1.40;;;1.25;;
51148;SDS011;37210;50.058;8.688;2022-10-15T11:13:21;1.80;;;1.58;;
51148;SDS011;37210;50.058;8.688;2022-10-15T11:16:02;2.35;;;1.48;;
51148;SDS011;37210;50.058;8.688;2022-10-15T11:18:39;2.88;;;1.77;;
51148;SDS011;37210;50.058;8.688;2022-10-15T11:21:26;2.67;;;2.50;;
51148;SDS011;37210;50.058;8.688;2022-10-15T11:24:11;2.90;;;2.20;;
51148;SDS011;37210;50.058;8.688;2022-10-15T11:29:58;3.25;;;2.10;;
51148;SDS011;37210;50.058;8.688;2022-10-15T11:32:42;2.60;;;2.40;;
51148;SDS011;37210;50.058;8.688;2022-10-15T11:35:33;2.78;;;2.50;;
51148;SDS011;37210;50.058;8.688;2022-10-15T11:38:18;2.60;;;2.40;;
51148;SDS011;37210;50.058;8.688;2022-10-15T11:41:00;2.50;;;2.30;;
51148;SDS011;37210;50.058;8.688;2022-10-15T11:43:54;3.03;;;2.35;;
51148;SDS011;37210;50.058;8.688;2022-10-15T11:46:41;2.47;;;2.20;;
51148;SDS011;37210;50.058;8.688;2022-10-15T11:49:25;2.17;;;2.08;;
51148;SDS011;37210;50.058;8.688;2022-10-15T11:52:19;2.83;;;2.45;;
51148;SDS011;37210;50.058;8.688;2022-10-15T11:55:06;2.05;;;1.95;;
51148;SDS011;37210;50.058;8.688;2022-10-15T11:57:40;2.00;;;1.90;;
51148;SDS011;37210;50.058;8.688;2022-10-15T12:00:14;2.42;;;2.15;;
51148;SDS011;37210;50.058;8.688;2022-10-15T12:02:59;2.78;;;2.00;;
51148;SDS011;37210;50.058;8.688;2022-10-15T12:05:34;1.92;;;1.80;;
51148;SDS011;37210;50.058;8.688;2022-10-15T12:08:07;2.00;;;1.80;;
51148;SDS011;37210;50.058;8.688;2022-10-15T12:10:50;2.35;;;1.70;;
51148;SDS011;37210;50.058;8.688;2022-10-15T12:13:33;2.92;;;1.95;;
51148;SDS011;37210;50.058;8.688;2022-10-15T12:16:13;2.03;;;1.92;;
51148;SDS011;37210;50.058;8.688;2022-10-15T12:18:52;3.13;;;1.90;;
51148;SDS011;37210;50.058;8.688;2022-10-15T12:21:37;3.35;;;2.30;;
51148;SDS011;37210;50.058;8.688;2022-10-15T12:27:18;3.22;;;1.95;;
51148;SDS011;37210;50.058;8.688;2022-10-15T12:29:51;2.63;;;1.88;;
51148;SDS011;37210;50.058;8.688;2022-10-15T12:32:38;2.00;;;1.52;;
51148;SDS011;37210;50.058;8.688;2022-10-15T12:35:18;1.65;;;1.45;;
51148;SDS011;37210;50.058;8.688;2022-10-15T12:37:57;2.85;;;1.65;;
51148;SDS011;37210;50.058;8.688;2022-10-15T12:40:44;2.40;;;1.50;;
51148;SDS011;37210;50.058;8.688;2022-10-15T12:43:22;1.20;;;1.10;;
51148;SDS011;37210;50.058;8.688;2022-10-15T12:45:53;1.67;;;1.58;;
51148;SDS011;37210;50.058;8.688;2022-10-15T12:48:30;1.40;;;1.30;;
51148;SDS011;37210;50.058;8.688;2022-10-15T12:57:11;1.50;;;1.23;;
51148;SDS011;37210;50.058;8.688;2022-10-15T13:00:32;2.75;;;1.27;;
51148;SDS011;37210;50.058;8.688;2022-10-15T13:03:14;2.88;;;1.10;;
51148;SDS011;37210;50.058;8.688;2022-10-15T13:05:48;1.38;;;1.17;;
51148;SDS011;37210;50.058;8.688;2022-10-15T13:08:18;1.35;;;1.08;;
51148;SDS011;37210;50.058;8.688;2022-10-15T13:10:51;2.67;;;1.05;;
51148;SDS011;37210;50.058;8.688;2022-10-15T13:13:27;1.80;;;1.50;;
51148;SDS011;37210;50.058;8.688;2022-10-15T13:15:58;1.50;;;1.35;;
51148;SDS011;37210;50.058;8.688;2022-10-15T13:18:32;4.05;;;1.50;;
51148;SDS011;37210;50.058;8.688;2022-10-15T13:21:03;1.17;;;1.08;;
51148;SDS011;37210;50.058;8.688;2022-10-15T13:23:32;1.80;;;1.33;;
51148;SDS011;37210;50.058;8.688;2022-10-15T13:26:09;3.38;;;1.02;;
51148;SDS011;37210;50.058;8.688;2022-10-15T13:28:44;3.25;;;1.73;;
51148;SDS011;37210;50.058;8.688;2022-10-15T13:31:18;1.17;;;1.10;;
51148;SDS011;37210;50.058;8.688;2022-10-15T13:33:53;2.25;;;1.10;;
51148;SDS011;37210;50.058;8.688;2022-10-15T13:36:26;3.63;;;1.20;;
51148;SDS011;37210;50.058;8.688;2022-10-15T13:38:59;1.55;;;1.00;;
51148;SDS011;37210;50.058;8.688;2022-10-15T13:41:33;3.00;;;1.50;;
51148;SDS011;37210;50.058;8.688;2022-10-15T13:44:17;1.58;;;0.90;;
51148;SDS011;37210;50.058;8.688;2022-10-15T13:46:48;2.10;;;1.30;;
51148;SDS011;37210;50.058;8.688;2022-10-15T13:49:16;0.88;;;0.88;;
51148;SDS011;37210;50.058;8.688;2022-10-15T13:51:45;1.35;;;0.85;;
51148;SDS011;37210;50.058;8.688;2022-10-15T13:54:18;1.42;;;0.90;;
51148;SDS011;37210;50.058;8.688;2022-10-15T13:56:49;1.08;;;0.90;;
51148;SDS011;37210;50.058;8.688;2022-10-15T13:59:24;1.00;;;0.90;;
51148;SDS011;37210;50.058;8.688;2022-10-15T14:01:55;1.70;;;1.08;;
51148;SDS011;37210;50.058;8.688;2022-10-15T14:04:26;3.30;;;1.40;;
51148;SDS011;37210;50.058;8.688;2022-10-15T14:06:57;1.00;;;0.90;;
51148;SDS011;37210;50.058;8.688;2022-10-15T14:09:28;1.40;;;1.25;;
51148;SDS011;37210;50.058;8.688;2022-10-15T14:11:59;1.45;;;1.00;;
51148;SDS011;37210;50.058;8.688;2022-10-15T14:14:30;3.08;;;0.93;;
51148;SDS011;37210;50.058;8.688;2022-10-15T14:19:35;1.35;;;1.23;;
51148;SDS011;37210;50.058;8.688;2022-10-15T14:22:04;2.55;;;0.90;;
51148;SDS011;37210;50.058;8.688;2022-10-15T14:24:33;1.52;;;1.05;;
51148;SDS011;37210;50.058;8.688;2022-10-15T14:27:05;2.13;;;1.10;;
51148;SDS011;37210;50.058;8.688;2022-10-15T14:29:41;1.33;;;0.88;;
51148;SDS011;37210;50.058;8.688;2022-10-15T14:32:17;0.80;;;0.60;;
51148;SDS011;37210;50.058;8.688;2022-10-15T14:34:47;0.60;;;0.60;;
51148;SDS011;37210;50.058;8.688;2022-10-15T14:37:29;0.70;;;0.50;;
51148;SDS011;37210;50.058;8.688;2022-10-15T14:40:13;1.08;;;0.90;;
51148;SDS011;37210;50.058;8.688;2022-10-15T14:42:47;1.60;;;0.68;;
51148;SDS011;37210;50.058;8.688;2022-10-15T14:45:30;0.82;;;0.68;;
51148;SDS011;37210;50.058;8.688;2022-10-15T14:48:07;1.13;;;0.85;;
51148;SDS011;37210;50.058;8.688;2022-10-15T14:53:12;0.70;;;0.60;;
51148;SDS011;37210;50.058;8.688;2022-10-15T14:55:49;0.63;;;0.60;;
51148;SDS011;37210;50.058;8.688;2022-10-15T14:58:22;1.33;;;0.60;;
51148;SDS011;37210;50.058;8.688;2022-10-15T15:00:55;2.78;;;0.60;;
51148;SDS011;37210;50.058;8.688;2022-10-15T15:03:28;1.13;;;0.82;;
51148;SDS011;37210;50.058;8.688;2022-10-15T15:06:05;3.63;;;1.10;;
51148;SDS011;37210;50.058;8.688;2022-10-15T15:08:33;2.55;;;1.00;;
51148;SDS011;37210;50.058;8.688;2022-10-15T15:11:02;2.30;;;0.75;;
51148;SDS011;37210;50.058;8.688;2022-10-15T15:13:35;3.03;;;1.00;;
51148;SDS011;37210;50.058;8.688;2022-10-15T15:16:09;1.52;;;1.20;;
51148;SDS011;37210;50.058;8.688;2022-10-15T15:18:38;2.47;;;1.10;;
51148;SDS011;37210;50.058;8.688;2022-10-15T15:21:09;2.38;;;1.08;;
51148;SDS011;37210;50.058;8.688;2022-10-15T15:23:42;1.63;;;1.00;;
51148;SDS011;37210;50.058;8.688;2022-10-15T15:26:10;1.58;;;1.13;;
51148;SDS011;37210;50.058;8.688;2022-10-15T15:28:38;1.00;;;0.77;;
51148;SDS011;37210;50.058;8.688;2022-10-15T15:31:06;1.10;;;1.00;;
51148;SDS011;37210;50.058;8.688;2022-10-15T15:33:45;1.98;;;1.10;;
51148;SDS011;37210;50.058;8.688;2022-10-15T15:36:16;1.92;;;1.02;;
51148;SDS011;37210;50.058;8.688;2022-10-15T15:38:48;3.60;;;1.05;;
51148;SDS011;37210;50.058;8.688;2022-10-15T15:41:16;3.80;;;1.42;;
51148;SDS011;37210;50.058;8.688;2022-10-15T15:43:46;1.95;;;1.17;;
51148;SDS011;37210;50.058;8.688;2022-10-15T15:46:15;2.25;;;1.50;;
51148;SDS011;37210;50.058;8.688;2022-10-15T15:48:44;1.17;;;1.08;;
51148;SDS011;37210;50.058;8.688;2022-10-15T15:51:14;1.23;;;0.95;;